createdAt,value
2019-02-14T00:00:19.260Z,8.30
2019-02-14T00:01:19.250Z,10.10
2019-02-14T00:02:19.243Z,9.80
2019-02-14T00:03:19.236Z,10.40
2019-02-14T00:04:19.228Z,8.70
2019-02-14T00:05:19.220Z,10.80
2019-02-14T00:06:19.214Z,8.50
2019-02-14T00:07:19.208Z,13.00
2019-02-14T00:08:19.200Z,8.50
2019-02-14T00:09:19.190Z,9.10
2019-02-14T00:10:19.185Z,7.30
2019-02-14T00:11:19.176Z,8.80
2019-02-14T00:12:19.169Z,9.60
2019-02-14T00:13:19.161Z,7.40
2019-02-14T00:14:19.156Z,8.50
2019-02-14T00:15:19.148Z,10.50
2019-02-14T00:16:19.140Z,6.60
2019-02-14T00:17:19.130Z,9.00
2019-02-14T00:18:19.123Z,6.60
2019-02-14T00:19:19.116Z,6.10
2019-02-14T00:20:19.119Z,8.00
2019-02-14T00:21:19.101Z,11.80
2019-02-14T00:22:19.094Z,8.00
2019-02-14T00:23:19.087Z,9.10
2019-02-14T00:24:19.082Z,7.30
2019-02-14T00:25:19.070Z,9.30
2019-02-14T00:26:19.064Z,8.80
2019-02-14T00:27:19.056Z,10.00
2019-02-14T00:28:19.049Z,10.50
2019-02-14T00:29:19.041Z,10.50
2019-02-14T00:30:19.038Z,13.10
2019-02-14T00:31:19.027Z,13.60
2019-02-14T00:32:19.019Z,6.70
2019-02-14T00:33:19.013Z,10.40
2019-02-14T00:34:19.003Z,7.80
2019-02-14T00:35:24.873Z,10.00
2019-02-14T00:36:18.990Z,10.90
2019-02-14T00:37:18.982Z,10.20
2019-02-14T00:38:18.974Z,10.00
2019-02-14T00:39:18.965Z,10.20
2019-02-14T00:40:18.959Z,9.30
2019-02-14T00:41:18.953Z,10.40
2019-02-14T00:42:18.944Z,9.40
2019-02-14T00:43:18.937Z,10.70
2019-02-14T00:44:18.931Z,10.80
2019-02-14T00:45:18.924Z,6.30
2019-02-14T00:46:18.914Z,9.10
2019-02-14T00:47:18.907Z,10.90
2019-02-14T00:48:18.903Z,6.30
2019-02-14T00:49:18.890Z,7.00
2019-02-14T00:50:18.883Z,9.90
2019-02-14T00:51:18.878Z,8.40
2019-02-14T00:52:18.868Z,9.10
2019-02-14T00:53:18.860Z,9.80
2019-02-14T00:54:18.853Z,9.20
2019-02-14T00:55:18.846Z,8.00
2019-02-14T00:56:18.838Z,6.50
2019-02-14T00:57:18.831Z,7.10
2019-02-14T00:58:18.823Z,6.70
2019-02-14T00:59:18.816Z,6.30
2019-02-14T01:00:18.811Z,9.50
2019-02-14T01:01:18.799Z,5.70
2019-02-14T01:02:18.793Z,6.50
2019-02-14T01:03:18.784Z,7.80
2019-02-14T01:04:18.777Z,7.60
2019-02-14T01:05:18.769Z,6.10
2019-02-14T01:06:18.762Z,9.20
2019-02-14T01:07:18.754Z,6.00
2019-02-14T01:08:18.746Z,8.40
2019-02-14T01:09:18.737Z,7.10
2019-02-14T01:10:18.730Z,5.00
2019-02-14T01:11:18.722Z,6.30
2019-02-14T01:12:18.719Z,7.90
2019-02-14T01:13:18.706Z,7.80
2019-02-14T01:14:18.699Z,10.30
2019-02-14T01:15:18.691Z,9.20
2019-02-14T01:16:18.683Z,6.00
2019-02-14T01:17:18.675Z,8.40
2019-02-14T01:18:18.668Z,7.40
2019-02-14T01:19:18.660Z,9.60
2019-02-14T01:20:18.654Z,6.90
2019-02-14T01:21:18.645Z,7.90
2019-02-14T01:22:18.639Z,7.40
2019-02-14T01:23:18.629Z,5.30
2019-02-14T01:24:18.619Z,6.70
2019-02-14T01:25:18.621Z,6.80
2019-02-14T01:26:18.604Z,5.70
2019-02-14T01:27:18.596Z,6.60
2019-02-14T01:28:18.587Z,7.40
2019-02-14T01:29:18.579Z,8.00
2019-02-14T01:30:18.571Z,5.00
2019-02-14T01:31:18.564Z,8.10
2019-02-14T01:32:18.555Z,7.70
2019-02-14T01:33:18.546Z,6.30
2019-02-14T01:34:18.539Z,6.60
2019-02-14T01:35:18.535Z,6.50
2019-02-14T01:36:18.524Z,6.40
2019-02-14T01:37:18.514Z,5.80
2019-02-14T01:38:18.507Z,6.80
2019-02-14T01:39:18.500Z,6.10
2019-02-14T01:40:18.491Z,8.60
2019-02-14T01:41:18.484Z,5.20
2019-02-14T01:42:18.474Z,7.60
2019-02-14T01:43:18.466Z,4.90
2019-02-14T01:44:18.458Z,6.40
2019-02-14T01:45:18.450Z,9.00
2019-02-14T01:46:18.442Z,7.70
2019-02-14T01:47:18.434Z,7.90
2019-02-14T01:48:18.427Z,6.80
2019-02-14T01:49:18.419Z,6.50
2019-02-14T01:50:18.409Z,5.30
2019-02-14T01:51:18.400Z,5.20
2019-02-14T01:52:18.393Z,6.20
2019-02-14T01:53:18.384Z,5.20
2019-02-14T01:54:18.376Z,7.80
2019-02-14T01:55:18.369Z,5.20
2019-02-14T01:56:18.362Z,8.60
2019-02-14T01:57:18.351Z,5.90
2019-02-14T01:58:18.344Z,5.70
2019-02-14T01:59:18.337Z,7.50
2019-02-14T02:00:18.326Z,6.20
2019-02-14T02:01:18.318Z,6.10
2019-02-14T02:02:18.312Z,6.90
2019-02-14T02:03:18.308Z,7.00
2019-02-14T02:04:18.295Z,6.40
2019-02-14T02:05:18.287Z,9.50
2019-02-14T02:06:18.278Z,7.80
2019-02-14T02:07:18.269Z,7.30
2019-02-14T02:08:18.261Z,6.90
2019-02-14T02:09:18.253Z,8.20
2019-02-14T02:10:18.244Z,7.10
2019-02-14T02:11:18.236Z,5.30
2019-02-14T02:12:18.230Z,11.40
2019-02-14T02:13:18.220Z,7.70
2019-02-14T02:14:18.211Z,7.30
2019-02-14T02:15:18.203Z,9.00
2019-02-14T02:16:18.197Z,5.80
2019-02-14T02:17:18.187Z,5.80
2019-02-14T02:18:18.179Z,10.80
2019-02-14T02:19:18.171Z,5.90
2019-02-14T02:20:18.162Z,7.90
2019-02-14T02:21:18.153Z,6.90
2019-02-14T02:22:18.144Z,5.30
2019-02-14T02:23:18.136Z,5.80
2019-02-14T02:24:18.129Z,11.00
2019-02-14T02:25:18.120Z,7.80
2019-02-14T02:26:18.112Z,6.50
2019-02-14T02:27:18.103Z,8.10
2019-02-14T02:28:18.094Z,9.20
2019-02-14T02:29:18.087Z,6.70
2019-02-14T02:30:18.077Z,9.60
2019-02-14T02:31:18.070Z,7.30
2019-02-14T02:32:18.064Z,6.60
2019-02-14T02:33:18.051Z,6.50
2019-02-14T02:34:18.048Z,7.00
2019-02-14T02:35:18.039Z,8.70
2019-02-14T02:36:18.026Z,9.70
2019-02-14T02:37:18.020Z,5.40
2019-02-14T02:38:18.010Z,9.10
2019-02-14T02:39:18.001Z,4.90
2019-02-14T02:40:17.994Z,6.60
2019-02-14T02:41:17.983Z,5.00
2019-02-14T02:42:17.975Z,5.30
2019-02-14T02:43:17.966Z,10.90
2019-02-14T02:44:17.958Z,7.60
2019-02-14T02:45:17.962Z,6.10
2019-02-14T02:46:17.944Z,6.80
2019-02-14T02:47:17.934Z,8.80
2019-02-14T02:48:17.925Z,6.20
2019-02-14T02:49:17.915Z,6.20
2019-02-14T02:50:17.907Z,7.30
2019-02-14T02:51:17.899Z,6.00
2019-02-14T02:52:17.896Z,6.40
2019-02-14T02:53:17.882Z,11.90
2019-02-14T02:54:17.872Z,11.20
2019-02-14T02:55:17.864Z,10.80
2019-02-14T02:56:17.859Z,7.10
2019-02-14T02:57:17.846Z,10.20
2019-02-14T02:58:17.845Z,8.70
2019-02-14T02:59:17.830Z,6.20
2019-02-14T03:00:17.821Z,8.20
2019-02-14T03:01:17.812Z,8.50
2019-02-14T03:02:17.802Z,8.70
2019-02-14T03:03:17.797Z,11.90
2019-02-14T03:04:17.786Z,12.70
2019-02-14T03:05:17.779Z,7.70
2019-02-14T03:06:17.767Z,11.70
2019-02-14T03:07:17.760Z,8.30
2019-02-14T03:08:17.752Z,9.50
2019-02-14T03:09:17.746Z,9.80
2019-02-14T03:10:17.732Z,7.80
2019-02-14T03:11:17.724Z,6.50
2019-02-14T03:12:17.716Z,5.40
2019-02-14T03:13:17.708Z,9.50
2019-02-14T03:14:17.698Z,8.60
2019-02-14T03:15:17.689Z,7.20
2019-02-14T03:16:17.680Z,6.80
2019-02-14T03:17:17.681Z,7.10
2019-02-14T03:18:17.664Z,7.60
2019-02-14T03:19:17.655Z,5.60
2019-02-14T03:20:17.645Z,8.90
2019-02-14T03:21:17.637Z,7.60
2019-02-14T03:22:17.629Z,6.90
2019-02-14T03:23:17.619Z,10.80
2019-02-14T03:24:17.610Z,6.60
2019-02-14T03:25:17.642Z,8.60
2019-02-14T03:26:17.592Z,10.50
2019-02-14T03:27:17.585Z,11.00
2019-02-14T03:28:17.575Z,8.90
2019-02-14T03:29:17.567Z,6.40
2019-02-14T03:30:17.582Z,6.90
2019-02-14T03:31:17.561Z,9.30
2019-02-14T03:32:17.544Z,6.60
2019-02-14T03:33:17.532Z,12.20
2019-02-14T03:34:17.523Z,9.20
2019-02-14T03:35:17.519Z,7.80
2019-02-14T03:36:19.042Z,10.90
2019-02-14T03:37:17.499Z,7.90
2019-02-14T03:38:17.487Z,9.00
2019-02-14T03:39:17.480Z,7.40
2019-02-14T03:40:17.471Z,8.10
2019-02-14T03:41:17.460Z,10.50
2019-02-14T03:42:17.453Z,6.10
2019-02-14T03:43:17.444Z,9.30
2019-02-14T03:44:17.436Z,8.10
2019-02-14T03:45:17.425Z,7.00
2019-02-14T03:46:17.418Z,6.90
2019-02-14T03:47:17.410Z,6.00
2019-02-14T03:48:17.401Z,13.60
2019-02-14T03:49:17.428Z,7.40
2019-02-14T03:50:17.382Z,5.70
2019-02-14T03:51:17.374Z,6.90
2019-02-14T03:52:17.365Z,10.30
2019-02-14T03:53:17.357Z,8.20
2019-02-14T03:54:17.348Z,6.60
2019-02-14T03:55:17.338Z,9.70
2019-02-14T03:56:17.329Z,6.60
2019-02-14T03:57:17.322Z,7.80
2019-02-14T03:58:17.314Z,6.80
2019-02-14T03:59:17.303Z,8.10
2019-02-14T04:00:17.296Z,8.10
2019-02-14T04:01:17.289Z,9.70
2019-02-14T04:02:17.276Z,6.00
2019-02-14T04:03:17.268Z,7.00
2019-02-14T04:04:17.259Z,6.30
2019-02-14T04:05:17.250Z,7.90
2019-02-14T04:06:17.242Z,8.00
2019-02-14T04:07:17.232Z,7.80
2019-02-14T04:08:17.226Z,10.10
2019-02-14T04:09:17.214Z,5.90
2019-02-14T04:10:17.207Z,8.20
2019-02-14T04:11:17.198Z,10.00
2019-02-14T04:12:17.188Z,8.00
2019-02-14T04:13:17.179Z,10.40
2019-02-14T04:14:17.170Z,6.90
2019-02-14T04:15:17.165Z,10.50
2019-02-14T04:16:17.155Z,7.70
2019-02-14T04:17:17.144Z,8.00
2019-02-14T04:18:17.136Z,8.00
2019-02-14T04:19:17.126Z,8.90
2019-02-14T04:20:17.118Z,11.30
2019-02-14T04:21:17.108Z,10.40
2019-02-14T04:22:17.100Z,9.10
2019-02-14T04:23:17.091Z,6.90
2019-02-14T04:24:17.082Z,9.50
2019-02-14T04:25:17.072Z,8.50
2019-02-14T04:26:17.064Z,6.60
2019-02-14T04:27:17.057Z,8.00
2019-02-14T04:28:17.046Z,8.60
2019-02-14T04:29:17.037Z,12.00
2019-02-14T04:30:17.027Z,10.20
2019-02-14T04:31:17.021Z,11.10
2019-02-14T04:32:17.009Z,10.10
2019-02-14T04:33:17.001Z,7.30
2019-02-14T04:34:16.995Z,8.30
2019-02-14T04:35:16.983Z,9.50
2019-02-14T04:36:16.972Z,7.40
2019-02-14T04:37:16.967Z,6.90
2019-02-14T04:38:16.954Z,10.00
2019-02-14T04:39:16.946Z,9.30
2019-02-14T04:40:16.938Z,7.40
2019-02-14T04:41:16.926Z,7.80
2019-02-14T04:42:16.919Z,9.40
2019-02-14T04:43:16.909Z,10.10
2019-02-14T04:44:16.900Z,8.60
2019-02-14T04:45:16.889Z,11.30
2019-02-14T04:46:16.880Z,9.40
2019-02-14T04:47:16.871Z,7.60
2019-02-14T04:48:16.863Z,6.50
2019-02-14T04:49:16.853Z,8.00
2019-02-14T04:50:16.843Z,10.10
2019-02-14T04:51:16.835Z,10.10
2019-02-14T04:52:16.827Z,8.60
2019-02-14T04:53:16.815Z,6.90
2019-02-14T04:54:16.808Z,6.40
2019-02-14T04:55:16.800Z,7.60
2019-02-14T04:56:16.788Z,10.20
2019-02-14T04:57:16.779Z,12.80
2019-02-14T04:58:16.770Z,7.50
2019-02-14T04:59:16.760Z,9.20
2019-02-14T05:00:16.752Z,10.20
2019-02-14T05:01:16.742Z,7.50
2019-02-14T05:02:16.733Z,13.10
2019-02-14T05:03:16.724Z,14.90
2019-02-14T05:04:16.716Z,8.50
2019-02-14T05:05:16.706Z,9.10
2019-02-14T05:06:16.698Z,9.50
2019-02-14T05:07:16.688Z,9.50
2019-02-14T05:08:16.679Z,18.10
2019-02-14T05:09:16.671Z,13.90
2019-02-14T05:10:16.658Z,9.20
2019-02-14T05:11:16.651Z,14.30
2019-02-14T05:12:16.641Z,20.40
2019-02-14T05:13:16.632Z,16.40
2019-02-14T05:14:16.623Z,13.30
2019-02-14T05:15:16.614Z,15.10
2019-02-14T05:16:16.603Z,15.60
2019-02-14T05:17:16.594Z,11.50
2019-02-14T05:18:16.585Z,11.50
2019-02-14T05:19:16.577Z,12.70
2019-02-14T05:20:16.575Z,11.50
2019-02-14T05:21:16.558Z,10.50
2019-02-14T05:22:16.548Z,6.40
2019-02-14T05:23:16.538Z,10.70
2019-02-14T05:24:16.529Z,14.20
2019-02-14T05:25:16.520Z,13.00
2019-02-14T05:26:16.515Z,8.80
2019-02-14T05:27:16.501Z,10.50
2019-02-14T05:28:16.493Z,9.40
2019-02-14T05:29:16.482Z,13.70
2019-02-14T05:30:16.474Z,13.30
2019-02-14T05:31:16.465Z,16.40
2019-02-14T05:32:16.455Z,13.60
2019-02-14T05:33:16.444Z,14.40
2019-02-14T05:34:16.437Z,13.20
2019-02-14T05:35:16.428Z,9.50
2019-02-14T05:36:16.417Z,9.60
2019-02-14T05:37:16.407Z,6.30
2019-02-14T05:38:16.399Z,11.50
2019-02-14T05:39:16.390Z,8.40
2019-02-14T05:40:16.381Z,9.00
2019-02-14T05:41:16.372Z,11.10
2019-02-14T05:42:16.361Z,13.00
2019-02-14T05:43:16.352Z,14.40
2019-02-14T05:44:16.344Z,16.40
2019-02-14T05:45:16.334Z,22.10
2019-02-14T05:46:16.326Z,26.40
2019-02-14T05:47:16.317Z,20.50
2019-02-14T05:48:16.307Z,37.70
2019-02-14T05:49:16.297Z,29.30
2019-02-14T05:50:16.290Z,59.80
2019-02-14T05:51:16.278Z,59.40
2019-02-14T05:52:16.271Z,44.10
2019-02-14T05:53:16.265Z,37.30
2019-02-14T05:54:16.251Z,31.40
2019-02-14T05:55:16.242Z,24.60
2019-02-14T05:56:16.234Z,38.60
2019-02-14T05:57:16.223Z,23.80
2019-02-14T05:58:16.214Z,19.70
2019-02-14T05:59:16.204Z,25.80
2019-02-14T06:00:16.200Z,20.20
2019-02-14T06:01:16.187Z,20.10
2019-02-14T06:02:16.177Z,15.20
2019-02-14T06:03:16.170Z,12.40
2019-02-14T06:04:16.158Z,13.30
2019-02-14T06:05:16.149Z,18.00
2019-02-14T06:06:16.139Z,20.70
2019-02-14T06:07:16.130Z,12.90
2019-02-14T06:08:16.121Z,10.50
2019-02-14T06:09:16.111Z,12.00
2019-02-14T06:10:16.107Z,12.00
2019-02-14T06:11:16.094Z,8.20
2019-02-14T06:12:16.086Z,15.80
2019-02-14T06:13:16.075Z,9.20
2019-02-14T06:14:16.065Z,11.20
2019-02-14T06:15:16.057Z,7.50
2019-02-14T06:16:16.047Z,9.20
2019-02-14T06:17:16.038Z,10.20
2019-02-14T06:18:16.029Z,12.70
2019-02-14T06:19:16.021Z,6.40
2019-02-14T06:20:16.011Z,7.60
2019-02-14T06:21:16.001Z,8.30
2019-02-14T06:22:15.993Z,11.60
2019-02-14T06:23:15.983Z,7.60
2019-02-14T06:24:15.974Z,7.00
2019-02-14T06:25:15.965Z,13.40
2019-02-14T06:26:15.955Z,12.10
2019-02-14T06:27:15.947Z,11.90
2019-02-14T06:28:15.937Z,11.70
2019-02-14T06:29:15.926Z,10.00
2019-02-14T06:30:15.919Z,9.70
2019-02-14T06:31:15.909Z,15.00
2019-02-14T06:32:15.900Z,16.50
2019-02-14T06:33:15.890Z,11.00
2019-02-14T06:34:15.881Z,10.60
2019-02-14T06:35:15.878Z,7.40
2019-02-14T06:36:15.863Z,6.80
2019-02-14T06:37:15.854Z,6.20
2019-02-14T06:38:15.849Z,8.40
2019-02-14T06:39:15.838Z,12.90
2019-02-14T06:40:15.827Z,9.80
2019-02-14T06:41:15.816Z,8.80
2019-02-14T06:42:15.807Z,11.70
2019-02-14T06:43:15.797Z,11.00
2019-02-14T06:44:15.791Z,10.90
2019-02-14T06:45:15.780Z,9.60
2019-02-14T06:46:15.770Z,10.30
2019-02-14T06:47:15.814Z,8.10
2019-02-14T06:48:15.751Z,10.00
2019-02-14T06:49:15.743Z,6.70
2019-02-14T06:50:15.733Z,6.50
2019-02-14T06:51:15.725Z,7.70
2019-02-14T06:52:15.718Z,5.50
2019-02-14T06:53:15.755Z,8.20
2019-02-14T06:54:15.697Z,7.90
2019-02-14T06:55:15.687Z,4.60
2019-02-14T06:56:15.679Z,4.60
2019-02-14T06:57:15.668Z,5.20
2019-02-14T06:58:15.659Z,5.50
2019-02-14T06:59:15.651Z,9.20
2019-02-14T07:00:15.642Z,6.00
2019-02-14T07:01:15.631Z,6.90
2019-02-14T07:02:15.622Z,5.10
2019-02-14T07:03:15.614Z,9.10
2019-02-14T07:04:15.605Z,10.40
2019-02-14T07:05:15.599Z,12.90
2019-02-14T07:06:15.593Z,9.20
2019-02-14T07:07:18.690Z,11.40
2019-02-14T07:08:15.568Z,17.60
2019-02-14T07:09:15.559Z,8.10
2019-02-14T07:10:15.547Z,10.40
2019-02-14T07:11:15.539Z,12.20
2019-02-14T07:12:15.529Z,9.80
2019-02-14T07:13:15.565Z,14.30
2019-02-14T07:14:15.512Z,15.40
2019-02-14T07:15:15.503Z,13.40
2019-02-14T07:16:15.492Z,14.40
2019-02-14T07:17:15.483Z,14.30
2019-02-14T07:18:15.473Z,8.10
2019-02-14T07:19:15.465Z,10.80
2019-02-14T07:20:15.456Z,9.00
2019-02-14T07:21:15.446Z,11.40
2019-02-14T07:22:15.481Z,10.70
2019-02-14T07:23:15.429Z,10.80
2019-02-14T07:24:15.419Z,11.60
2019-02-14T07:25:15.410Z,9.60
2019-02-14T07:26:15.400Z,10.90
2019-02-14T07:27:15.391Z,9.30
2019-02-14T07:28:15.387Z,8.90
2019-02-14T07:29:15.372Z,11.90
2019-02-14T07:30:15.363Z,13.10
2019-02-14T07:31:15.362Z,6.00
2019-02-14T07:32:15.346Z,7.90
2019-02-14T07:33:15.336Z,6.20
2019-02-14T07:34:15.330Z,8.60
2019-02-14T07:35:15.322Z,7.20
2019-02-14T07:36:15.315Z,10.90
2019-02-14T07:37:15.299Z,8.00
2019-02-14T07:38:15.290Z,7.50
2019-02-14T07:39:15.282Z,8.30
2019-02-14T07:40:15.274Z,9.40
2019-02-14T07:41:15.263Z,8.30
2019-02-14T07:42:15.252Z,7.00
2019-02-14T07:43:15.244Z,15.50
2019-02-14T07:44:15.236Z,10.40
2019-02-14T07:45:15.232Z,14.40
2019-02-14T07:46:22.529Z,12.90
2019-02-14T07:47:15.208Z,10.20
2019-02-14T07:48:15.201Z,10.70
2019-02-14T07:49:15.190Z,12.20
2019-02-14T07:50:15.186Z,13.90
2019-02-14T07:51:15.172Z,24.40
2019-02-14T07:52:15.166Z,25.00
2019-02-14T07:53:15.159Z,12.70
2019-02-14T07:54:15.148Z,13.10
2019-02-14T07:55:15.220Z,12.00
2019-02-14T07:56:15.129Z,10.50
2019-02-14T07:57:15.120Z,10.80
2019-02-14T07:58:15.109Z,9.30
2019-02-14T07:59:15.100Z,6.70
2019-02-14T08:00:15.093Z,9.50
2019-02-14T08:01:15.083Z,10.40
2019-02-14T08:02:15.076Z,7.70
2019-02-14T08:03:15.067Z,6.80
2019-02-14T08:04:15.058Z,4.70
2019-02-14T08:05:15.047Z,7.00
2019-02-14T08:06:15.043Z,7.00
2019-02-14T08:07:15.031Z,8.90
2019-02-14T08:08:15.024Z,10.00
2019-02-14T08:09:15.015Z,15.90
2019-02-14T08:10:15.005Z,12.50
2019-02-14T08:11:14.996Z,8.40
2019-02-14T08:12:14.991Z,7.40
2019-02-14T08:13:14.979Z,8.70
2019-02-14T08:14:14.970Z,11.90
2019-02-14T08:15:14.963Z,13.20
2019-02-14T08:16:14.954Z,6.90
2019-02-14T08:17:14.943Z,10.40
2019-02-14T08:18:14.936Z,9.40
2019-02-14T08:19:14.927Z,7.20
2019-02-14T08:20:14.919Z,8.00
2019-02-14T08:21:14.912Z,6.50
2019-02-14T08:22:14.902Z,5.50
2019-02-14T08:23:14.898Z,7.90
2019-02-14T08:24:14.885Z,9.60
2019-02-14T08:25:14.878Z,8.70
2019-02-14T08:26:14.868Z,6.50
2019-02-14T08:27:14.862Z,12.90
2019-02-14T08:28:14.854Z,12.60
2019-02-14T08:29:14.848Z,6.40
2019-02-14T08:30:14.843Z,8.10
2019-02-14T08:31:14.826Z,8.50
2019-02-14T08:32:14.818Z,9.70
2019-02-14T08:33:14.810Z,18.10
2019-02-14T08:34:14.803Z,21.60
2019-02-14T08:35:14.796Z,26.10
2019-02-14T08:36:14.790Z,94.20
2019-02-14T08:37:14.775Z,48.60
2019-02-14T08:38:14.769Z,125.10
2019-02-14T08:39:14.759Z,70.30
2019-02-14T08:40:14.752Z,22.90
2019-02-14T08:41:14.745Z,20.90
2019-02-14T08:42:14.736Z,18.30
2019-02-14T08:43:14.728Z,23.20
2019-02-14T08:44:14.719Z,10.70
2019-02-14T08:45:14.711Z,38.40
2019-02-14T08:46:14.702Z,49.20
2019-02-14T08:47:14.694Z,21.70
2019-02-14T08:48:14.687Z,19.30
2019-02-14T08:49:14.678Z,53.30
2019-02-14T08:50:14.672Z,40.00
2019-02-14T08:51:14.665Z,43.80
2019-02-14T08:52:14.656Z,39.10
2019-02-14T08:53:14.647Z,51.40
2019-02-14T08:54:14.638Z,44.80
2019-02-14T08:55:14.631Z,43.00
2019-02-14T08:56:14.623Z,34.40
2019-02-14T08:57:14.615Z,32.40
2019-02-14T08:58:14.607Z,25.30
2019-02-14T08:59:14.601Z,24.30
2019-02-14T09:00:14.594Z,23.10
2019-02-14T09:01:14.585Z,16.90
2019-02-14T09:02:14.578Z,19.60
2019-02-14T09:03:14.570Z,9.10
2019-02-14T09:04:14.562Z,13.60
2019-02-14T09:05:14.554Z,10.50
2019-02-14T09:06:14.550Z,13.10
2019-02-14T09:07:14.539Z,9.20
2019-02-14T09:08:14.535Z,12.00
2019-02-14T09:09:14.524Z,9.20
2019-02-14T09:10:14.517Z,8.70
2019-02-14T09:11:14.510Z,12.20
2019-02-14T09:12:14.503Z,10.50
2019-02-14T09:13:17.298Z,15.50
2019-02-14T09:14:14.486Z,9.60
2019-02-14T09:15:14.480Z,8.50
2019-02-14T09:16:14.473Z,11.60
2019-02-14T09:17:14.464Z,12.50
2019-02-14T09:18:14.459Z,10.20
2019-02-14T09:19:14.453Z,9.90
2019-02-14T09:20:14.445Z,20.10
2019-02-14T09:21:14.435Z,12.40
2019-02-14T09:22:14.428Z,11.00
2019-02-14T09:23:14.793Z,11.20
2019-02-14T09:24:14.416Z,8.70
2019-02-14T09:25:14.407Z,12.60
2019-02-14T09:26:14.406Z,11.00
2019-02-14T09:27:14.430Z,10.60
2019-02-14T09:28:14.388Z,9.20
2019-02-14T09:29:14.493Z,13.80
2019-02-14T09:30:14.373Z,15.60
2019-02-14T09:31:14.366Z,11.20
2019-02-14T09:32:14.358Z,10.40
2019-02-14T09:33:14.351Z,14.60
2019-02-14T09:34:14.343Z,9.60
2019-02-14T09:35:14.336Z,9.90
2019-02-14T09:36:14.330Z,11.60
2019-02-14T09:37:14.326Z,11.20
2019-02-14T09:38:14.316Z,9.40
2019-02-14T09:39:14.309Z,10.70
2019-02-14T09:40:14.305Z,13.70
2019-02-14T09:41:14.297Z,9.00
2019-02-14T09:42:14.286Z,10.90
2019-02-14T09:43:14.285Z,9.10
2019-02-14T09:44:14.274Z,9.40
2019-02-14T09:45:14.276Z,8.90
2019-02-14T09:46:14.260Z,10.60
2019-02-14T09:47:14.252Z,10.90
2019-02-14T09:48:14.246Z,9.90
2019-02-14T09:49:14.246Z,9.20
2019-02-14T09:50:14.244Z,9.50
2019-02-14T09:51:14.227Z,9.60
2019-02-14T09:52:14.220Z,10.10
2019-02-14T09:53:14.225Z,9.50
2019-02-14T09:54:14.204Z,8.80
2019-02-14T09:55:14.200Z,8.60
2019-02-14T09:56:14.193Z,9.50
2019-02-14T09:57:14.187Z,8.20
2019-02-14T09:58:14.180Z,9.90
2019-02-14T09:59:14.172Z,13.20
2019-02-14T10:00:14.180Z,10.70
2019-02-14T10:01:14.171Z,11.80
2019-02-14T10:02:14.150Z,8.40
2019-02-14T10:03:14.146Z,10.70
2019-02-14T10:04:14.139Z,6.90
2019-02-14T10:05:14.130Z,10.30
2019-02-14T10:06:14.130Z,7.00
2019-02-14T10:07:14.148Z,9.60
2019-02-14T10:08:14.113Z,7.00
2019-02-14T10:09:14.129Z,7.30
2019-02-14T10:10:14.111Z,8.10
2019-02-14T10:11:14.167Z,10.40
2019-02-14T10:12:14.112Z,8.10
2019-02-14T10:13:14.082Z,8.30
2019-02-14T10:14:14.081Z,9.40
2019-02-14T10:15:14.079Z,9.00
2019-02-14T10:16:14.070Z,6.30
2019-02-14T10:17:21.858Z,8.90
2019-02-14T10:18:14.063Z,6.40
2019-02-14T10:19:14.057Z,6.20
2019-02-14T10:20:14.055Z,8.60
2019-02-14T10:21:14.050Z,9.60
2019-02-14T10:22:14.049Z,6.50
2019-02-14T10:23:14.046Z,8.30
2019-02-14T10:24:14.045Z,7.80
2019-02-14T10:25:14.041Z,8.10
2019-02-14T10:26:14.037Z,11.30
2019-02-14T10:27:14.040Z,8.70
2019-02-14T10:28:14.034Z,8.90
2019-02-14T10:29:14.030Z,5.00
2019-02-14T10:30:14.028Z,6.90
2019-02-14T10:31:14.026Z,5.80
2019-02-14T10:32:14.026Z,11.10
2019-02-14T10:33:14.022Z,10.90
2019-02-14T10:34:14.020Z,5.80
2019-02-14T10:35:14.023Z,5.10
2019-02-14T10:36:14.020Z,7.10
2019-02-14T10:37:14.017Z,7.10
2019-02-14T10:38:22.075Z,5.90
2019-02-14T10:39:14.020Z,7.40
2019-02-14T10:40:14.015Z,11.00
2019-02-14T10:41:14.013Z,8.30
2019-02-14T10:42:14.014Z,6.30
2019-02-14T10:43:14.013Z,6.10
2019-02-14T10:44:14.017Z,6.60
2019-02-14T10:45:14.018Z,5.90
2019-02-14T10:46:14.017Z,8.50
2019-02-14T10:47:14.017Z,7.10
2019-02-14T10:48:14.023Z,8.40
2019-02-14T10:49:14.017Z,10.70
2019-02-14T10:50:14.021Z,6.20
2019-02-14T10:51:14.021Z,7.40
2019-02-14T10:52:14.025Z,6.40
2019-02-14T10:53:14.026Z,7.60
2019-02-14T10:54:14.027Z,11.50
2019-02-14T10:55:14.031Z,6.50
2019-02-14T10:56:14.036Z,6.60
2019-02-14T10:57:14.038Z,6.50
2019-02-14T10:58:14.038Z,4.80
2019-02-14T10:59:14.041Z,6.10
2019-02-14T11:00:16.080Z,5.30
2019-02-14T11:01:14.046Z,5.80
2019-02-14T11:02:14.056Z,6.10
2019-02-14T11:03:14.053Z,7.50
2019-02-14T11:04:14.058Z,5.80
2019-02-14T11:05:14.059Z,5.80
2019-02-14T11:06:14.065Z,7.40
2019-02-14T11:07:14.068Z,5.90
2019-02-14T11:08:14.072Z,4.40
2019-02-14T11:09:14.072Z,6.60
2019-02-14T11:10:14.076Z,9.40
2019-02-14T11:11:14.079Z,5.00
2019-02-14T11:12:14.082Z,5.80
2019-02-14T11:13:14.084Z,5.30
2019-02-14T11:14:14.087Z,5.40
2019-02-14T11:15:14.090Z,5.30
2019-02-14T11:16:14.093Z,7.80
2019-02-14T11:17:14.096Z,5.10
2019-02-14T11:18:14.097Z,5.60
2019-02-14T11:19:14.102Z,5.30
2019-02-14T11:20:14.104Z,5.60
2019-02-14T11:21:14.107Z,5.10
2019-02-14T11:22:14.107Z,4.50
2019-02-14T11:23:14.111Z,5.80
2019-02-14T11:24:14.110Z,5.60
2019-02-14T11:25:14.113Z,5.80
2019-02-14T11:26:14.117Z,4.70
2019-02-14T11:27:14.116Z,6.50
2019-02-14T11:28:14.119Z,4.50
2019-02-14T11:29:14.120Z,5.60
2019-02-14T11:30:14.121Z,6.20
2019-02-14T11:31:14.125Z,4.70
2019-02-14T11:32:14.124Z,7.50
2019-02-14T11:33:14.123Z,7.50
2019-02-14T11:34:14.129Z,6.10
2019-02-14T11:35:14.131Z,6.00
2019-02-14T11:36:14.129Z,4.20
2019-02-14T11:37:14.129Z,3.90
2019-02-14T11:38:14.129Z,6.60
2019-02-14T11:39:14.131Z,4.60
2019-02-14T11:40:14.133Z,5.70
2019-02-14T11:41:14.132Z,8.00
2019-02-14T11:42:14.130Z,4.80
2019-02-14T11:43:14.132Z,4.60
2019-02-14T11:44:14.131Z,3.10
2019-02-14T11:45:14.132Z,6.90
2019-02-14T11:46:14.131Z,5.60
2019-02-14T11:47:14.131Z,3.90
2019-02-14T11:48:14.131Z,5.60
2019-02-14T11:49:14.132Z,4.50
2019-02-14T11:50:14.131Z,7.40
2019-02-14T11:51:14.131Z,5.40
2019-02-14T11:52:14.130Z,6.00
2019-02-14T11:53:14.508Z,8.50
2019-02-14T11:54:14.129Z,6.60
2019-02-14T11:55:14.131Z,5.40
2019-02-14T11:56:14.129Z,3.50
2019-02-14T11:57:14.128Z,5.20
2019-02-14T11:58:14.127Z,5.80
2019-02-14T11:59:14.127Z,4.60
2019-02-14T12:00:14.127Z,4.10
2019-02-14T12:01:14.125Z,8.80
2019-02-14T12:02:14.124Z,6.00
2019-02-14T12:03:14.125Z,5.30
2019-02-14T12:04:14.124Z,4.10
2019-02-14T12:05:14.121Z,2.90
2019-02-14T12:06:17.579Z,5.20
2019-02-14T12:07:14.122Z,3.00
2019-02-14T12:08:14.119Z,6.00
2019-02-14T12:09:14.116Z,3.80
2019-02-14T12:10:14.123Z,4.30
2019-02-14T12:11:14.112Z,4.50
2019-02-14T12:12:14.111Z,3.60
2019-02-14T12:13:14.108Z,4.30
2019-02-14T12:14:14.110Z,6.20
2019-02-14T12:15:14.106Z,3.20
2019-02-14T12:16:14.103Z,4.00
2019-02-14T12:17:14.102Z,3.20
2019-02-14T12:18:14.099Z,3.30
2019-02-14T12:19:14.098Z,5.40
2019-02-14T12:20:14.100Z,3.60
2019-02-14T12:21:14.093Z,3.40
2019-02-14T12:22:14.090Z,3.10
2019-02-14T12:23:14.087Z,4.10
2019-02-14T12:24:14.086Z,5.30
2019-02-14T12:25:14.082Z,6.60
2019-02-14T12:26:14.081Z,6.60
2019-02-14T12:27:14.079Z,3.30
2019-02-14T12:28:14.075Z,10.80
2019-02-14T12:29:14.073Z,3.70
2019-02-14T12:30:14.071Z,5.30
2019-02-14T12:31:14.067Z,6.60
2019-02-14T12:32:14.067Z,4.10
2019-02-14T12:33:14.062Z,5.20
2019-02-14T12:34:14.061Z,3.80
2019-02-14T12:35:14.058Z,3.20
2019-02-14T12:36:14.060Z,6.10
2019-02-14T12:37:15.914Z,6.20
2019-02-14T12:38:14.057Z,4.50
2019-02-14T12:39:14.046Z,5.10
2019-02-14T12:40:14.044Z,5.00
2019-02-14T12:41:14.041Z,4.70
2019-02-14T12:42:14.038Z,4.50
2019-02-14T12:43:14.035Z,3.30
2019-02-14T12:44:14.034Z,4.60
2019-02-14T12:45:20.300Z,2.80
2019-02-14T12:46:14.028Z,3.20
2019-02-14T12:47:14.023Z,3.10
2019-02-14T12:48:14.021Z,7.50
2019-02-14T12:49:14.019Z,2.60
2019-02-14T12:50:14.015Z,3.10
2019-02-14T12:51:14.013Z,4.20
2019-02-14T12:52:14.009Z,3.80
2019-02-14T12:53:14.008Z,3.40
2019-02-14T12:54:14.003Z,2.90
2019-02-14T12:55:14.001Z,3.50
2019-02-14T12:56:13.998Z,7.80
2019-02-14T12:57:13.996Z,5.30
2019-02-14T12:58:13.991Z,3.70
2019-02-14T12:59:13.987Z,2.80
2019-02-14T13:00:13.985Z,2.80
2019-02-14T13:01:13.980Z,5.90
2019-02-14T13:02:13.979Z,4.60
2019-02-14T13:03:13.975Z,2.90
2019-02-14T13:04:13.973Z,4.90
2019-02-14T13:05:13.968Z,3.10
2019-02-14T13:06:13.966Z,2.90
2019-02-14T13:07:13.963Z,3.20
2019-02-14T13:08:13.960Z,3.40
2019-02-14T13:09:20.198Z,3.80
2019-02-14T13:10:13.952Z,2.40